createdAt,value
2018-08-24T00:02:10.000Z,17.30
2018-08-24T00:04:38.417Z,17.20
2018-08-24T00:07:06.876Z,17.10
2018-08-24T00:09:35.305Z,17.00
2018-08-24T00:12:03.744Z,17.00
2018-08-24T00:14:32.184Z,16.80
2018-08-24T00:17:00.644Z,16.80
2018-08-24T00:19:29.060Z,16.70
2018-08-24T00:21:57.478Z,16.70
2018-08-24T00:24:25.912Z,16.60
2018-08-24T00:26:54.376Z,16.70
2018-08-24T00:29:22.804Z,16.70
2018-08-24T00:31:51.451Z,16.70
2018-08-24T00:34:19.721Z,16.60
2018-08-24T00:36:48.137Z,16.60
2018-08-24T00:39:16.557Z,16.60
2018-08-24T00:41:44.984Z,16.50
2018-08-24T00:44:13.460Z,16.60
2018-08-24T00:46:41.896Z,16.60
2018-08-24T00:49:10.313Z,16.50
2018-08-24T00:51:38.764Z,16.50
2018-08-24T00:54:07.256Z,16.40
2018-08-24T00:56:35.701Z,16.40
2018-08-24T00:59:04.149Z,16.30
2018-08-24T01:01:32.645Z,16.10
2018-08-24T01:04:01.085Z,16.10
2018-08-24T01:06:29.528Z,16.00
2018-08-24T01:08:57.940Z,15.90
2018-08-24T01:11:41.510Z,15.70
2018-08-24T01:14:10.105Z,15.70
2018-08-24T01:16:43.981Z,15.60
2018-08-24T01:19:12.457Z,15.50
2018-08-24T01:21:40.934Z,15.40
2018-08-24T01:24:09.398Z,15.40
2018-08-24T01:26:38.781Z,15.30
2018-08-24T01:29:07.295Z,15.20
2018-08-24T01:31:38.596Z,15.10
2018-08-24T01:34:07.101Z,15.10
2018-08-24T01:36:35.576Z,15.00
2018-08-24T01:39:04.884Z,15.00
2018-08-24T01:41:33.317Z,15.00
2018-08-24T01:44:01.894Z,14.90
2018-08-24T01:46:30.404Z,14.90
2018-08-24T01:48:59.076Z,14.80
2018-08-24T01:51:27.749Z,14.80
2018-08-24T01:53:56.435Z,14.80
2018-08-24T01:56:25.276Z,14.90
2018-08-24T01:58:53.796Z,14.90
2018-08-24T02:01:22.524Z,14.90
2018-08-24T02:03:51.064Z,14.90
2018-08-24T02:06:19.498Z,15.00
2018-08-24T02:08:47.960Z,15.00
2018-08-24T02:11:21.760Z,14.90
2018-08-24T02:13:55.501Z,15.00
2018-08-24T02:16:23.949Z,15.00
2018-08-24T02:18:57.832Z,15.10
2018-08-24T02:21:31.557Z,15.20
2018-08-24T02:24:00.021Z,15.10
2018-08-24T02:26:28.468Z,15.10
2018-08-24T02:28:56.925Z,15.00
2018-08-24T02:31:25.403Z,15.00
2018-08-24T02:33:53.852Z,15.10
2018-08-24T02:36:22.851Z,15.20
2018-08-24T02:38:51.284Z,15.20
2018-08-24T02:41:19.752Z,15.20
2018-08-24T02:43:48.194Z,15.30
2018-08-24T02:46:16.664Z,15.20
2018-08-24T02:48:45.099Z,15.10
2018-08-24T02:51:13.554Z,14.90
2018-08-24T02:53:42.005Z,14.80
2018-08-24T02:56:10.439Z,15.00
2018-08-24T02:58:38.921Z,15.00
2018-08-24T03:01:07.950Z,15.00
2018-08-24T03:03:36.432Z,15.10
2018-08-24T03:06:05.815Z,15.20
2018-08-24T03:08:34.285Z,15.20
2018-08-24T03:11:03.578Z,15.20
2018-08-24T03:13:32.053Z,15.30
2018-08-24T03:16:00.577Z,15.30
2018-08-24T03:18:29.023Z,15.30
2018-08-24T03:20:57.464Z,15.30
2018-08-24T03:23:25.930Z,15.30
2018-08-24T03:25:54.392Z,15.40
2018-08-24T03:28:22.845Z,15.40
2018-08-24T03:30:51.305Z,15.40
2018-08-24T03:33:19.768Z,15.40
2018-08-24T03:35:48.237Z,15.40
2018-08-24T03:38:16.701Z,15.40
2018-08-24T03:40:45.216Z,15.30
2018-08-24T03:43:13.666Z,15.30
2018-08-24T03:45:42.161Z,15.20
2018-08-24T03:48:10.561Z,15.00
2018-08-24T03:50:39.078Z,15.00
2018-08-24T03:53:07.549Z,15.20
2018-08-24T03:55:36.991Z,15.30
2018-08-24T03:58:07.008Z,15.40
2018-08-24T04:00:35.475Z,15.40
2018-08-24T04:03:04.318Z,15.40
2018-08-24T04:05:32.752Z,15.40
2018-08-24T04:08:01.197Z,15.30
2018-08-24T04:10:29.641Z,15.30
2018-08-24T04:12:58.244Z,15.30
2018-08-24T04:15:26.580Z,15.30
2018-08-24T04:17:55.004Z,15.40
2018-08-24T04:20:23.638Z,15.30
2018-08-24T04:22:52.070Z,15.30
2018-08-24T04:25:20.541Z,15.30
2018-08-24T04:27:49.001Z,15.30
2018-08-24T04:30:18.237Z,15.30
2018-08-24T04:32:46.679Z,15.30
2018-08-24T04:35:15.195Z,15.30
2018-08-24T04:37:45.291Z,15.30
2018-08-24T04:40:13.867Z,15.30
2018-08-24T04:42:42.250Z,15.30
2018-08-24T04:45:10.848Z,15.30
2018-08-24T04:47:39.333Z,15.30
2018-08-24T04:50:07.885Z,15.30
2018-08-24T04:52:36.341Z,15.30
2018-08-24T04:55:05.424Z,15.30
2018-08-24T04:57:33.884Z,15.30
2018-08-24T05:00:02.394Z,15.40
2018-08-24T05:02:30.868Z,15.30
2018-08-24T05:04:59.497Z,15.30
2018-08-24T05:07:28.002Z,15.40
2018-08-24T05:09:56.849Z,15.30
2018-08-24T05:12:25.314Z,15.30
2018-08-24T05:14:53.781Z,15.20
2018-08-24T05:17:22.227Z,15.10
2018-08-24T05:19:51.394Z,15.10
2018-08-24T05:22:19.839Z,15.10
2018-08-24T05:24:48.380Z,15.10
2018-08-24T05:27:16.757Z,15.10
2018-08-24T05:29:45.272Z,15.20
2018-08-24T05:32:13.728Z,15.10
2018-08-24T05:34:42.245Z,15.10
2018-08-24T05:37:10.682Z,15.20
2018-08-24T05:39:39.133Z,15.20
2018-08-24T05:42:07.597Z,15.20
2018-08-24T05:44:36.956Z,15.20
2018-08-24T05:47:05.473Z,15.30
2018-08-24T05:49:33.929Z,15.30
2018-08-24T05:52:02.388Z,15.30
2018-08-24T05:54:30.818Z,15.30
2018-08-24T05:56:59.264Z,15.30
2018-08-24T05:59:27.703Z,15.30
2018-08-24T06:01:56.325Z,15.30
2018-08-24T06:04:24.777Z,15.30
2018-08-24T06:06:54.513Z,15.20
2018-08-24T06:09:23.272Z,15.30
2018-08-24T06:11:51.773Z,15.30
2018-08-24T06:14:20.294Z,15.30
2018-08-24T06:16:54.123Z,15.30
2018-08-24T06:19:22.492Z,15.30
2018-08-24T06:21:51.944Z,15.30
2018-08-24T06:24:20.827Z,15.20
2018-08-24T06:26:49.429Z,15.20
2018-08-24T06:29:17.912Z,15.20
2018-08-24T06:31:46.377Z,15.20
2018-08-24T06:34:14.894Z,15.10
2018-08-24T06:36:43.377Z,15.20
2018-08-24T06:39:13.553Z,15.20
2018-08-24T06:41:42.869Z,15.00
2018-08-24T06:44:11.272Z,15.10
2018-08-24T06:46:39.709Z,15.20
2018-08-24T06:49:08.392Z,15.40
2018-08-24T06:51:36.820Z,15.40
2018-08-24T06:54:05.356Z,15.30
2018-08-24T06:56:33.813Z,15.30
2018-08-24T06:59:02.453Z,15.30
2018-08-24T07:01:30.914Z,15.30
2018-08-24T07:03:59.385Z,15.30
2018-08-24T07:06:27.859Z,15.30
2018-08-24T07:08:56.348Z,15.30
2018-08-24T07:11:24.809Z,15.30
2018-08-24T07:13:54.795Z,15.30
2018-08-24T07:16:23.364Z,15.30
2018-08-24T07:18:51.899Z,15.30
2018-08-24T07:21:20.365Z,15.30
2018-08-24T07:23:48.837Z,15.30
2018-08-24T07:26:17.293Z,15.50
2018-08-24T07:28:45.763Z,15.50
2018-08-24T07:31:14.217Z,15.30
2018-08-24T07:33:42.709Z,15.20
2018-08-24T07:36:11.169Z,15.20
2018-08-24T07:38:39.642Z,15.20
2018-08-24T07:41:08.120Z,15.20
2018-08-24T07:43:36.614Z,15.20
2018-08-24T07:46:05.081Z,15.30
2018-08-24T07:48:33.526Z,15.40
2018-08-24T07:51:02.036Z,15.50
2018-08-24T07:53:30.472Z,15.30
2018-08-24T07:55:58.997Z,15.50
2018-08-24T07:58:27.438Z,15.60
2018-08-24T08:00:55.919Z,15.70
2018-08-24T08:03:24.366Z,15.60
2018-08-24T08:05:52.889Z,15.60
2018-08-24T08:08:21.348Z,15.50
2018-08-24T08:10:49.828Z,15.40
2018-08-24T08:13:18.317Z,15.40
2018-08-24T08:15:46.784Z,15.70
2018-08-24T08:18:15.348Z,16.00
2018-08-24T08:20:43.749Z,16.10
2018-08-24T08:23:12.233Z,16.50
2018-08-24T08:25:40.761Z,16.30
2018-08-24T08:28:09.245Z,16.20
2018-08-24T08:30:37.709Z,16.30
2018-08-24T08:33:06.181Z,16.60
2018-08-24T08:35:34.696Z,16.70
2018-08-24T08:38:03.192Z,17.10
2018-08-24T08:40:31.630Z,17.40
2018-08-24T08:43:00.110Z,17.20
2018-08-24T08:45:28.616Z,16.70
2018-08-24T08:47:57.005Z,16.70
2018-08-24T08:50:25.466Z,17.00
2018-08-24T08:52:53.942Z,17.20
2018-08-24T08:55:22.441Z,17.60
2018-08-24T08:57:50.918Z,17.90
2018-08-24T09:00:19.420Z,17.90
2018-08-24T09:02:47.926Z,18.20
2018-08-24T09:05:16.469Z,18.60
2018-08-24T09:07:44.980Z,19.40
2018-08-24T09:10:13.474Z,18.60
2018-08-24T09:12:42.516Z,18.60
2018-08-24T09:15:10.993Z,19.10
2018-08-24T09:17:44.872Z,19.00
2018-08-24T09:20:18.640Z,19.00
2018-08-24T09:22:52.389Z,18.50
2018-08-24T09:25:26.031Z,19.70
2018-08-24T09:27:59.751Z,19.70
2018-08-24T09:30:31.913Z,19.00
2018-08-24T09:33:00.541Z,19.00
2018-08-24T09:35:28.885Z,18.60
2018-08-24T09:37:57.366Z,18.30
2018-08-24T09:40:31.098Z,18.50
2018-08-24T09:43:03.823Z,18.40
2018-08-24T09:45:32.277Z,18.10
2018-08-24T09:48:06.127Z,18.20
2018-08-24T09:51:38.241Z,18.40
2018-08-24T09:54:07.976Z,18.30
2018-08-24T09:56:37.722Z,18.90
2018-08-24T09:59:06.281Z,18.60
2018-08-24T10:01:40.396Z,19.30
2018-08-24T10:04:14.309Z,20.20
2018-08-24T10:06:48.214Z,20.60
2018-08-24T10:09:16.637Z,19.60
2018-08-24T10:11:45.106Z,19.30
2018-08-24T10:14:13.549Z,19.60
2018-08-24T10:16:42.176Z,19.40
2018-08-24T10:19:12.059Z,19.20
2018-08-24T10:21:40.535Z,19.10
2018-08-24T10:24:10.052Z,19.60
2018-08-24T10:26:38.917Z,20.20
2018-08-24T10:29:08.089Z,20.70
2018-08-24T10:31:37.544Z,20.90
2018-08-24T10:34:06.203Z,20.30
2018-08-24T10:36:34.713Z,20.00
2018-08-24T10:39:03.773Z,19.50
2018-08-24T10:41:32.185Z,19.60
2018-08-24T10:44:00.648Z,19.40
2018-08-24T10:46:29.125Z,20.20
2018-08-24T10:48:57.612Z,20.70
2018-08-24T10:51:26.083Z,21.00
2018-08-24T10:53:54.611Z,20.80
2018-08-24T10:56:23.121Z,21.10
2018-08-24T10:58:52.081Z,21.30
2018-08-24T11:01:20.565Z,21.90
2018-08-24T11:03:49.134Z,22.10
2018-08-24T11:06:17.706Z,21.70
2018-08-24T11:08:47.417Z,20.80
2018-08-24T11:11:15.913Z,21.10
2018-08-24T11:13:44.413Z,21.60
2018-08-24T11:16:14.205Z,21.50
2018-08-24T11:18:42.685Z,21.20
2018-08-24T11:21:11.242Z,21.10
2018-08-24T11:23:39.709Z,21.30
2018-08-24T11:26:08.382Z,21.80
2018-08-24T11:28:36.855Z,21.00
2018-08-24T11:31:05.350Z,20.20
2018-08-24T11:33:33.829Z,20.10
2018-08-24T11:36:02.429Z,20.30
2018-08-24T11:38:30.889Z,20.40
2018-08-24T11:40:59.414Z,20.50
2018-08-24T11:43:27.889Z,20.90
2018-08-24T11:45:56.398Z,21.20
2018-08-24T11:48:27.389Z,21.20
2018-08-24T11:50:56.818Z,21.90
2018-08-24T11:53:25.808Z,21.90
2018-08-24T11:55:54.289Z,21.40
2018-08-24T11:58:24.825Z,20.90
2018-08-24T12:00:53.859Z,21.20
2018-08-24T12:03:22.385Z,21.30
2018-08-24T12:05:50.893Z,22.10
2018-08-24T12:08:19.495Z,22.50
2018-08-24T12:10:48.062Z,22.20
2018-08-24T12:13:16.600Z,22.20
2018-08-24T12:15:45.106Z,21.90
2018-08-24T12:18:13.659Z,21.70
2018-08-24T12:20:42.156Z,21.60
2018-08-24T12:23:10.645Z,20.90
2018-08-24T12:25:39.180Z,21.00
2018-08-24T12:28:07.695Z,21.80
2018-08-24T12:30:37.018Z,21.40
2018-08-24T12:33:05.846Z,21.70
2018-08-24T12:35:34.326Z,21.30
2018-08-24T12:38:03.551Z,21.50
2018-08-24T12:40:32.140Z,22.20
2018-08-24T12:43:00.681Z,22.00
2018-08-24T12:45:29.185Z,22.10
2018-08-24T12:47:57.761Z,22.20
2018-08-24T12:50:26.357Z,22.50
2018-08-24T12:52:54.963Z,22.30
2018-08-24T12:55:23.540Z,22.50
2018-08-24T12:57:52.093Z,22.70
2018-08-24T13:00:20.657Z,22.80
2018-08-24T13:02:49.171Z,22.70
2018-08-24T13:05:17.657Z,22.20
2018-08-24T13:07:46.173Z,23.20
2018-08-24T13:10:14.733Z,23.30
2018-08-24T13:12:43.190Z,22.90
2018-08-24T13:15:11.804Z,22.30
2018-08-24T13:17:40.275Z,23.00
2018-08-24T13:20:09.757Z,22.70
2018-08-24T13:22:38.259Z,23.40
2018-08-24T13:25:06.826Z,23.00
2018-08-24T13:27:35.373Z,23.40
2018-08-24T13:30:03.971Z,23.70
2018-08-24T13:32:32.491Z,22.80
2018-08-24T13:35:00.998Z,22.60
2018-08-24T13:37:29.848Z,22.80
2018-08-24T13:39:58.317Z,23.50
2018-08-24T13:42:26.789Z,22.90
2018-08-24T13:44:55.353Z,23.30
2018-08-24T13:47:23.776Z,23.20
2018-08-24T13:49:52.286Z,22.30
2018-08-24T13:52:20.845Z,22.70
2018-08-24T13:54:49.388Z,22.20
2018-08-24T13:57:18.050Z,22.40
2018-08-24T13:59:46.599Z,21.80
2018-08-24T14:02:15.097Z,21.90
2018-08-24T14:04:43.598Z,22.20
2018-08-24T14:07:12.157Z,22.30
2018-08-24T14:09:40.644Z,22.20
2018-08-24T14:12:09.138Z,22.20
2018-08-24T14:14:37.638Z,22.30
2018-08-24T14:17:06.262Z,21.70
2018-08-24T14:19:36.765Z,21.60
2018-08-24T14:22:05.304Z,21.60
2018-08-24T14:24:33.874Z,21.60
2018-08-24T14:27:04.513Z,21.50
2018-08-24T14:37:17.779Z,21.30
2018-08-24T14:39:46.246Z,21.10
2018-08-24T14:42:14.696Z,21.00
2018-08-24T14:44:45.705Z,21.10
2018-08-24T14:47:14.156Z,21.00
2018-08-24T14:49:42.596Z,21.00
2018-08-24T14:52:11.032Z,21.50
2018-08-24T14:54:39.488Z,21.30
2018-08-24T14:57:07.929Z,21.00
2018-08-24T14:59:36.381Z,21.10
2018-08-24T15:02:05.307Z,21.10
2018-08-24T15:04:33.846Z,21.20
2018-08-24T15:07:02.290Z,21.40
2018-08-24T15:09:30.752Z,21.40
2018-08-24T15:11:59.184Z,21.20
2018-08-24T15:17:48.153Z,21.30
2018-08-24T15:20:16.657Z,21.20
2018-08-24T15:22:45.086Z,21.20
2018-08-24T15:25:14.410Z,20.80
2018-08-24T15:27:42.861Z,20.70
2018-08-24T15:30:11.373Z,20.30
2018-08-24T15:32:39.926Z,20.60
2018-08-24T15:35:08.947Z,20.30
2018-08-24T15:37:37.368Z,20.20
2018-08-24T15:40:07.208Z,20.40
2018-08-24T15:42:35.691Z,20.20
2018-08-24T15:45:04.277Z,20.50
2018-08-24T15:47:32.741Z,20.30
2018-08-24T15:50:01.361Z,20.30
2018-08-24T15:52:29.797Z,20.20
2018-08-24T15:54:58.272Z,20.10
2018-08-24T15:57:26.776Z,20.10
2018-08-24T15:59:55.873Z,20.20
2018-08-24T16:02:24.422Z,20.30
2018-08-24T16:04:52.892Z,20.30
2018-08-24T16:07:21.439Z,20.40
2018-08-24T16:09:49.944Z,20.50
2018-08-24T16:12:18.530Z,20.30
2018-08-24T16:14:46.880Z,20.20
2018-08-24T16:17:15.321Z,20.10
2018-08-24T16:19:43.773Z,20.20
2018-08-24T16:22:12.859Z,20.10
2018-08-24T16:24:41.284Z,20.40
2018-08-24T16:27:14.117Z,20.20
2018-08-24T16:29:42.553Z,20.10
2018-08-24T16:32:11.052Z,20.20
2018-08-24T16:34:39.838Z,19.90
2018-08-24T16:40:08.574Z,20.40
2018-08-24T16:42:37.028Z,20.50
2018-08-24T16:45:05.546Z,20.00
2018-08-24T16:47:34.408Z,19.90
2018-08-24T16:50:02.988Z,19.80
2018-08-24T16:52:31.482Z,19.60
2018-08-24T16:55:02.404Z,19.60
2018-08-24T16:57:30.837Z,19.50
2018-08-24T16:59:59.304Z,19.60
2018-08-24T17:02:27.800Z,19.60
2018-08-24T17:04:56.329Z,19.50
2018-08-24T17:07:24.791Z,19.60
2018-08-24T17:09:53.220Z,19.80
2018-08-24T17:12:21.719Z,19.80
2018-08-24T17:14:50.188Z,19.50
2018-08-24T17:17:18.655Z,19.20
2018-08-24T17:19:47.140Z,19.20
2018-08-24T17:25:07.556Z,19.20
2018-08-24T17:27:36.229Z,19.10
2018-08-24T17:32:58.212Z,18.90
2018-08-24T17:35:26.713Z,19.00
2018-08-24T17:37:55.165Z,19.00
2018-08-24T17:40:24.200Z,18.90
2018-08-24T17:42:52.669Z,18.80
2018-08-24T17:45:21.471Z,18.70
2018-08-24T17:47:50.044Z,18.70
2018-08-24T17:50:18.492Z,18.70
2018-08-24T17:52:47.536Z,18.70
2018-08-24T17:55:15.994Z,18.60
2018-08-24T17:57:45.545Z,18.60
2018-08-24T18:00:14.162Z,18.60
2018-08-24T18:02:42.625Z,18.60
2018-08-24T18:05:11.224Z,18.40
2018-08-24T18:07:39.681Z,18.40
2018-08-24T18:10:08.141Z,18.30
2018-08-24T18:12:36.793Z,18.20
2018-08-24T18:15:05.384Z,18.40
2018-08-24T18:17:33.871Z,18.30
2018-08-24T18:20:02.327Z,18.30
2018-08-24T18:22:30.824Z,18.30
2018-08-24T18:24:59.286Z,18.20
2018-08-24T18:27:28.347Z,18.10
2018-08-24T18:29:56.864Z,18.10
2018-08-24T18:32:25.297Z,17.90
2018-08-24T18:34:53.841Z,17.90
2018-08-24T18:37:22.348Z,17.80
2018-08-24T18:39:50.792Z,17.70
2018-08-24T18:42:19.240Z,17.70
2018-08-24T18:44:47.800Z,17.70
2018-08-24T18:47:16.268Z,17.70
2018-08-24T18:49:44.766Z,17.60
2018-08-24T18:52:13.411Z,17.60
2018-08-24T18:54:41.883Z,17.60
2018-08-24T18:57:10.910Z,17.50
2018-08-24T18:59:39.441Z,17.50
2018-08-24T19:02:07.965Z,17.40
2018-08-24T19:04:36.933Z,17.40
2018-08-24T19:07:05.429Z,17.40
2018-08-24T19:09:33.890Z,17.20
2018-08-24T19:12:08.176Z,17.20
2018-08-24T19:14:36.616Z,17.10
2018-08-24T19:17:05.109Z,17.10
2018-08-24T19:19:38.945Z,17.10
2018-08-24T19:22:07.427Z,17.10
2018-08-24T19:24:35.983Z,17.10
2018-08-24T19:27:04.398Z,17.00
2018-08-24T19:29:38.173Z,17.00
2018-08-24T19:32:06.608Z,16.90
2018-08-24T19:34:35.105Z,16.90
2018-08-24T19:37:03.626Z,16.90
2018-08-24T19:39:32.082Z,16.90
2018-08-24T19:42:05.958Z,16.80
2018-08-24T19:44:34.439Z,16.70
2018-08-24T19:47:02.869Z,16.60
2018-08-24T19:49:31.433Z,16.60
2018-08-24T19:51:59.848Z,16.50
2018-08-24T19:54:28.289Z,16.40
2018-08-24T19:57:00.929Z,16.30
2018-08-24T19:59:29.912Z,16.30
2018-08-24T20:01:58.397Z,16.20
2018-08-24T20:04:26.916Z,16.10
2018-08-24T20:07:00.697Z,16.00
2018-08-24T20:09:34.548Z,16.00
2018-08-24T20:12:03.027Z,15.90
2018-08-24T20:14:36.819Z,15.80
2018-08-24T20:17:10.625Z,15.80
2018-08-24T20:19:39.081Z,15.80
2018-08-24T20:22:09.037Z,15.70
2018-08-24T20:24:38.165Z,15.80
2018-08-24T20:27:06.636Z,15.80
2018-08-24T20:29:35.063Z,15.70
2018-08-24T20:32:03.563Z,15.70
2018-08-24T20:34:31.994Z,15.70
2018-08-24T20:37:00.458Z,15.70
2018-08-24T20:39:28.905Z,15.70
2018-08-24T20:41:57.356Z,15.60
2018-08-24T20:44:25.799Z,15.50
2018-08-24T20:46:54.772Z,15.50
2018-08-24T20:49:23.193Z,15.50
2018-08-24T20:51:51.638Z,15.50
2018-08-24T20:54:20.075Z,15.50
2018-08-24T20:56:48.552Z,15.40
2018-08-24T20:59:17.325Z,15.40
2018-08-24T21:01:45.832Z,15.40
2018-08-24T21:04:14.299Z,15.30
2018-08-24T21:06:42.701Z,15.30
2018-08-24T21:09:11.569Z,15.30
2018-08-24T21:11:40.019Z,15.40
2018-08-24T21:14:08.477Z,15.30
2018-08-24T21:16:36.915Z,15.30
2018-08-24T21:19:05.493Z,15.20
2018-08-24T21:21:33.965Z,15.20
2018-08-24T21:24:02.445Z,15.20
2018-08-24T21:26:30.869Z,15.20
2018-08-24T21:28:59.338Z,15.30
2018-08-24T21:31:27.806Z,15.30
2018-08-24T21:33:56.241Z,15.40
2018-08-24T21:36:24.712Z,15.30
2018-08-24T21:38:53.194Z,15.30
2018-08-24T21:41:21.649Z,15.30
2018-08-24T21:43:50.116Z,15.20
2018-08-24T21:46:18.749Z,15.30
2018-08-24T21:48:47.186Z,15.20
2018-08-24T21:51:15.725Z,15.20
2018-08-24T21:53:44.170Z,15.20
2018-08-24T21:56:12.629Z,15.20
2018-08-24T21:58:41.043Z,15.20
2018-08-24T22:01:09.500Z,15.20
2018-08-24T22:03:37.948Z,15.10
2018-08-24T22:06:06.389Z,15.10
2018-08-24T22:08:34.828Z,15.10
2018-08-24T22:11:03.397Z,15.10
2018-08-24T22:13:31.808Z,15.00
2018-08-24T22:16:00.245Z,15.10
2018-08-24T22:18:28.669Z,15.10
2018-08-24T22:20:57.166Z,15.00
2018-08-24T22:23:25.604Z,14.90
2018-08-24T22:25:54.056Z,14.90
2018-08-24T22:28:22.489Z,15.00
2018-08-24T22:30:50.933Z,14.90
2018-08-24T22:33:19.362Z,14.90
2018-08-24T22:35:47.932Z,14.90
2018-08-24T22:38:16.542Z,14.90
2018-08-24T22:40:44.964Z,14.90
2018-08-24T22:43:18.537Z,14.80
2018-08-24T22:45:47.011Z,14.80
2018-08-24T22:48:15.450Z,14.80
2018-08-24T22:50:44.322Z,14.80
2018-08-24T22:53:12.765Z,14.80
2018-08-24T22:55:41.182Z,14.80
2018-08-24T22:58:09.649Z,14.80
2018-08-24T23:00:38.081Z,14.80
2018-08-24T23:03:06.565Z,14.70
2018-08-24T23:05:34.989Z,14.70
2018-08-24T23:08:03.477Z,14.70
2018-08-24T23:10:31.901Z,14.70
2018-08-24T23:13:00.321Z,14.80
2018-08-24T23:15:28.756Z,14.70
2018-08-24T23:17:57.196Z,14.70
2018-08-24T23:20:25.641Z,14.70
2018-08-24T23:22:54.089Z,14.70
2018-08-24T23:25:22.552Z,14.60
2018-08-24T23:27:50.963Z,14.70
2018-08-24T23:30:19.463Z,14.70
2018-08-24T23:32:47.899Z,14.60
2018-08-24T23:35:16.325Z,14.70
2018-08-24T23:37:44.733Z,14.60
2018-08-24T23:40:13.211Z,14.60
2018-08-24T23:42:41.619Z,14.70
2018-08-24T23:45:10.065Z,14.70
2018-08-24T23:47:38.501Z,14.70
2018-08-24T23:50:07.464Z,14.60
2018-08-24T23:52:35.895Z,14.60
2018-08-24T23:55:04.369Z,14.60
2018-08-24T23:57:32.887Z,14.60
